Time;durP1;ratioP1;P1;durP2;ratioP2;P2;SDS_P1;SDS_P2;PMS_P1;PMS_P2;Temp;Humidity;BMP_temperature;BMP_pressure;BME280_temperature;BME280_humidity;BME280_pressure;Samples;Min_cycle;Max_cycle;Signal;HPM_P1;HPM_P2
2021/10/25 00:01:59;;;;;;;5.28;2.20;;;10.80;74.30;;;;;;5019152;28;20030;-78
2021/10/25 00:04:24;;;;;;;4.72;2.25;;;10.80;74.40;;;;;;5030652;28;20022;-78
2021/10/25 00:06:50;;;;;;;2.60;1.88;;;10.70;73.80;;;;;;5029667;28;20096;-78
2021/10/25 00:09:16;;;;;;;6.57;1.95;;;10.80;73.80;;;;;;5028321;28;20400;-79
2021/10/25 00:11:42;;;;;;;5.32;2.03;;;10.70;74.10;;;;;;5019983;28;20030;-79
2021/10/25 00:14:07;;;;;;;6.70;2.00;;;10.80;74.60;;;;;;5019164;28;20531;-78
2021/10/25 00:16:33;;;;;;;6.53;2.00;;;10.80;73.70;;;;;;5032770;28;20056;-79
2021/10/25 00:18:59;;;;;;;5.07;2.00;;;10.80;74.30;;;;;;5023746;28;20417;-79
2021/10/25 00:21:26;;;;;;;4.60;2.00;;;10.80;74.30;;;;;;5025957;28;20034;-79
2021/10/25 00:23:51;;;;;;;7.05;2.20;;;10.70;74.30;;;;;;5023560;28;20034;-80
2021/10/25 00:26:17;;;;;;;4.22;1.65;;;10.70;75.30;;;;;;5021490;28;20384;-79
2021/10/25 00:28:43;;;;;;;3.72;2.30;;;10.60;74.90;;;;;;5029374;28;20041;-79
2021/10/25 00:31:08;;;;;;;4.38;2.13;;;10.60;74.40;;;;;;5026099;28;20018;-80
2021/10/25 00:33:34;;;;;;;4.95;1.90;;;10.70;73.40;;;;;;5032288;28;20033;-80
2021/10/25 00:36:00;;;;;;;4.90;2.28;;;10.80;73.70;;;;;;5018629;28;20076;-80
2021/10/25 00:38:26;;;;;;;5.75;1.95;;;10.80;73.30;;;;;;5020095;28;20509;-80
2021/10/25 00:40:53;;;;;;;3.92;2.00;;;10.80;73.60;;;;;;5025307;28;20507;-79
2021/10/25 00:43:19;;;;;;;10.05;2.53;;;10.70;73.40;;;;;;5013290;28;20650;-79
2021/10/25 00:45:45;;;;;;;3.65;1.95;;;10.60;73.90;;;;;;5022184;28;20041;-80
2021/10/25 00:48:11;;;;;;;3.70;1.88;;;10.60;74.30;;;;;;5024767;28;20521;-80
2021/10/25 00:50:38;;;;;;;2.50;2.10;;;10.60;74.10;;;;;;5023334;28;20029;-79
2021/10/25 00:53:04;;;;;;;3.38;2.00;;;10.50;74.50;;;;;;5029269;28;20022;-79
2021/10/25 00:55:30;;;;;;;3.67;1.90;;;10.40;74.30;;;;;;5022613;28;20479;-80
2021/10/25 00:57:56;;;;;;;9.65;2.13;;;10.30;76.80;;;;;;5024626;28;20040;-80
2021/10/25 01:00:23;;;;;;;3.28;2.33;;;10.20;76.90;;;;;;5017152;28;20093;-81
2021/10/25 01:02:49;;;;;;;3.42;2.13;;;10.10;77.40;;;;;;5022088;28;20025;-80
2021/10/25 01:05:14;;;;;;;5.18;2.08;;;10.00;77.50;;;;;;5019986;28;20036;-81
2021/10/25 01:07:41;;;;;;;6.50;2.30;;;10.10;77.10;;;;;;5024666;28;20045;-79
2021/10/25 01:10:07;;;;;;;6.78;2.20;;;10.00;78.00;;;;;;5029801;28;20480;-80
2021/10/25 01:12:34;;;;;;;7.95;2.47;;;10.10;77.70;;;;;;5014547;28;20037;-79
2021/10/25 01:15:00;;;;;;;5.20;1.92;;;10.10;78.30;;;;;;5021458;28;20096;-80
2021/10/25 01:17:26;;;;;;;4.20;2.53;;;10.00;77.40;;;;;;5037793;28;20137;-79
2021/10/25 01:19:54;;;;;;;6.07;2.55;;;10.00;77.10;;;;;;5024468;28;20017;-79
2021/10/25 01:22:21;;;;;;;5.93;2.42;;;10.10;76.30;;;;;;5038259;28;20030;-78
2021/10/25 01:24:47;;;;;;;4.22;2.30;;;10.10;77.10;;;;;;5024949;28;20510;-79
2021/10/25 01:27:13;;;;;;;4.53;2.35;;;10.10;76.50;;;;;;5029300;28;20053;-79
2021/10/25 01:29:38;;;;;;;5.40;1.98;;;10.20;76.50;;;;;;5027320;28;20469;-79
2021/10/25 01:32:04;;;;;;;4.18;2.35;;;10.20;77.10;;;;;;5015362;28;20112;-79
2021/10/25 01:34:30;;;;;;;4.07;2.13;;;10.20;76.70;;;;;;5027468;28;20053;-80
2021/10/25 01:36:56;;;;;;;4.22;2.30;;;10.20;77.50;;;;;;5013019;28;20134;-80
2021/10/25 01:39:22;;;;;;;5.57;2.30;;;10.10;77.00;;;;;;5016392;28;20022;-80
2021/10/25 01:41:47;;;;;;;4.07;2.28;;;10.10;77.70;;;;;;5016081;28;20496;-80
2021/10/25 01:44:14;;;;;;;4.25;2.42;;;10.00;77.20;;;;;;5028784;28;20029;-80
2021/10/25 01:46:43;;;;;;;4.63;2.50;;;10.00;77.40;;;;;;5021169;28;20056;-80
2021/10/25 01:49:09;;;;;;;4.03;2.40;;;10.00;77.30;;;;;;5022780;28;20171;-79
2021/10/25 01:51:35;;;;;;;7.63;2.78;;;10.10;77.40;;;;;;5040933;28;20526;-79
2021/10/25 01:54:02;;;;;;;5.28;2.90;;;10.00;77.70;;;;;;5026681;28;20030;-78
2021/10/25 01:56:29;;;;;;;6.93;2.22;;;10.10;77.30;;;;;;5023291;28;20126;-79
2021/10/25 01:58:55;;;;;;;6.28;2.60;;;10.10;78.70;;;;;;5029552;28;20515;-80
2021/10/25 02:01:23;;;;;;;5.47;2.63;;;10.10;78.90;;;;;;5015821;28;20026;-79
2021/10/25 02:03:49;;;;;;;4.00;2.25;;;10.10;77.60;;;;;;5021184;28;20025;-80
2021/10/25 02:06:15;;;;;;;5.45;2.03;;;10.00;78.20;;;;;;5017135;28;20052;-80
2021/10/25 02:08:40;;;;;;;3.83;2.22;;;10.00;78.50;;;;;;5027301;28;20029;-79
2021/10/25 02:11:07;;;;;;;3.28;2.20;;;10.00;77.90;;;;;;5018716;28;20556;-79
2021/10/25 02:13:33;;;;;;;6.97;2.17;;;10.00;79.40;;;;;;5013107;28;20018;-79
2021/10/25 02:15:59;;;;;;;5.30;2.30;;;10.00;77.80;;;;;;5024634;28;20026;-79
2021/10/25 02:18:24;;;;;;;3.75;1.92;;;10.00;78.80;;;;;;5029280;28;20404;-80
2021/10/25 02:20:50;;;;;;;6.18;2.47;;;10.00;77.90;;;;;;5022419;28;20104;-80
2021/10/25 02:23:16;;;;;;;5.18;2.35;;;10.00;77.10;;;;;;5030001;28;20051;-80
2021/10/25 02:25:45;;;;;;;4.00;2.15;;;10.10;77.40;;;;;;5018455;28;20037;-80
2021/10/25 02:28:11;;;;;;;4.85;2.28;;;10.10;77.20;;;;;;5014040;28;20029;-79
2021/10/25 02:30:37;;;;;;;4.80;2.30;;;10.10;76.90;;;;;;5020928;28;20026;-79
2021/10/25 02:33:03;;;;;;;5.65;2.25;;;10.10;77.10;;;;;;5013216;28;20018;-79
2021/10/25 02:35:29;;;;;;;6.30;2.30;;;10.00;76.70;;;;;;5018535;28;20037;-79
2021/10/25 02:37:57;;;;;;;6.70;2.28;;;10.00;76.20;;;;;;5015169;28;20046;-79
2021/10/25 02:40:25;;;;;;;5.45;2.30;;;10.00;76.70;;;;;;5018619;28;20017;-79
2021/10/25 02:42:51;;;;;;;11.15;2.63;;;10.00;76.90;;;;;;5012730;28;20022;-79
2021/10/25 02:45:17;;;;;;;4.68;2.42;;;10.00;77.10;;;;;;5020043;28;20079;-79
2021/10/25 02:47:43;;;;;;;4.10;2.10;;;10.00;76.60;;;;;;5025258;28;20400;-80
2021/10/25 02:50:10;;;;;;;5.00;2.00;;;10.00;77.40;;;;;;5019177;28;20499;-79
2021/10/25 02:52:35;;;;;;;3.63;2.00;;;9.90;76.60;;;;;;5031901;28;20033;-80
2021/10/25 02:55:02;;;;;;;4.97;2.30;;;9.90;76.90;;;;;;5022493;28;20026;-79
2021/10/25 02:57:28;;;;;;;4.18;2.05;;;9.90;76.00;;;;;;5024839;28;20163;-80
2021/10/25 02:59:54;;;;;;;3.45;2.17;;;9.90;77.30;;;;;;5019538;28;20124;-80
2021/10/25 03:02:20;;;;;;;4.07;2.22;;;9.80;76.40;;;;;;5013055;28;20473;-80
2021/10/25 03:04:45;;;;;;;4.35;2.40;;;9.80;76.80;;;;;;5016716;28;20160;-80
2021/10/25 03:07:11;;;;;;;6.47;2.53;;;9.80;77.30;;;;;;5013362;28;20760;-80
2021/10/25 03:09:37;;;;;;;3.70;2.42;;;9.90;78.30;;;;;;5021542;28;20025;-80
2021/10/25 03:12:03;;;;;;;6.60;1.90;;;9.90;77.20;;;;;;5013797;28;20033;-80
2021/10/25 03:14:29;;;;;;;7.40;2.20;;;10.10;76.60;;;;;;5021705;28;20022;-80
2021/10/25 03:16:55;;;;;;;12.02;2.30;;;10.20;77.10;;;;;;5018161;28;20045;-81
2021/10/25 03:19:20;;;;;;;4.10;2.13;;;10.20;75.60;;;;;;5015615;28;20491;-79
2021/10/25 03:21:46;;;;;;;5.50;2.08;;;10.20;76.40;;;;;;5017306;28;20056;-79
2021/10/25 03:24:12;;;;;;;5.95;2.22;;;10.20;74.00;;;;;;5026401;28;20080;-79
2021/10/25 03:26:37;;;;;;;6.15;2.33;;;10.20;75.80;;;;;;5022012;28;20026;-79
2021/10/25 03:29:03;;;;;;;3.78;2.08;;;10.20;74.90;;;;;;5024484;28;20033;-79
2021/10/25 03:31:29;;;;;;;6.55;2.38;;;10.20;76.90;;;;;;5024329;28;20113;-79
2021/10/25 03:33:55;;;;;;;6.40;2.17;;;10.10;74.90;;;;;;5027706;28;20117;-79
2021/10/25 03:36:25;;;;;;;2.80;1.95;;;10.20;75.00;;;;;;5024130;28;20030;-81
2021/10/25 03:38:51;;;;;;;5.82;2.42;;;10.20;74.90;;;;;;5028608;28;20425;-80
2021/10/25 03:41:30;;;;;;;5.05;2.28;;;10.10;75.60;;;;;;5024454;28;20072;-79
2021/10/25 03:44:05;;;;;;;5.35;2.78;;;10.10;75.10;;;;;;5018308;28;20579;-80
2021/10/25 03:46:38;;;;;;;3.78;2.30;;;10.10;76.10;;;;;;5025812;28;20080;-79
2021/10/25 03:51:33;;;;;;;5.93;2.20;;;10.10;75.50;;;;;;5022157;28;20017;-80
2021/10/25 03:54:22;;;;;;;3.60;2.22;;;10.00;76.10;;;;;;5030541;28;20064;-80
2021/10/25 04:29:26;;;;;;;5.78;2.70;;;9.90;76.20;;;;;;5016902;28;20026;-80
2021/10/25 04:31:51;;;;;;;6.10;2.13;;;9.90;76.70;;;;;;5032483;28;20435;-80
2021/10/25 04:34:17;;;;;;;6.43;2.70;;;9.90;77.60;;;;;;5023006;28;20088;-80
2021/10/25 04:36:43;;;;;;;4.85;2.60;;;9.90;77.50;;;;;;5024785;28;20046;-81
2021/10/25 04:39:13;;;;;;;6.15;2.58;;;9.90;76.60;;;;;;5019322;28;20065;-79
2021/10/25 04:41:39;;;;;;;4.65;2.47;;;9.90;77.60;;;;;;5020477;28;20612;-79
2021/10/25 04:44:06;;;;;;;6.25;2.35;;;9.90;75.90;;;;;;5017624;28;20038;-79
2021/10/25 04:46:32;;;;;;;6.25;2.88;;;9.90;75.40;;;;;;5021149;28;20033;-78
2021/10/25 04:48:58;;;;;;;4.95;2.67;;;9.90;76.20;;;;;;5023473;28;20113;-78
2021/10/25 04:51:24;;;;;;;5.85;2.88;;;9.90;76.70;;;;;;5024257;28;20109;-78
2021/10/25 04:53:49;;;;;;;5.68;2.83;;;9.90;76.60;;;;;;5022757;28;20033;-78
2021/10/25 04:56:15;;;;;;;4.95;2.92;;;9.90;76.00;;;;;;5019650;28;20025;-79
2021/10/25 04:58:41;;;;;;;5.22;2.63;;;9.80;76.40;;;;;;5017161;28;20163;-79
2021/10/25 05:01:08;;;;;;;13.30;2.70;;;9.80;75.90;;;;;;5021847;28;20026;-79
2021/10/25 05:03:36;;;;;;;5.25;2.75;;;9.80;76.60;;;;;;5020680;28;20034;-80
2021/10/25 05:06:03;;;;;;;4.30;2.50;;;9.80;75.50;;;;;;5022644;28;20050;-79
2021/10/25 05:08:29;;;;;;;7.55;2.85;;;9.80;74.80;;;;;;5021333;28;20116;-79
2021/10/25 05:10:55;;;;;;;5.80;2.78;;;9.80;74.60;;;;;;5013937;28;20124;-78
2021/10/25 05:13:21;;;;;;;5.82;3.30;;;9.80;74.70;;;;;;5013148;28;20083;-80
2021/10/25 05:15:47;;;;;;;6.68;2.55;;;9.70;75.00;;;;;;5019741;28;20034;-81
2021/10/25 05:18:13;;;;;;;6.43;3.20;;;9.70;75.30;;;;;;5013653;28;20038;-82
2021/10/25 05:20:40;;;;;;;9.82;2.97;;;9.70;75.10;;;;;;5023508;28;20037;-84
2021/10/25 05:23:07;;;;;;;9.02;2.88;;;9.70;75.60;;;;;;5017293;28;20041;-82
2021/10/25 05:25:33;;;;;;;6.43;2.60;;;9.70;75.00;;;;;;5017195;28;20030;-77
2021/10/25 05:27:59;;;;;;;4.95;2.72;;;9.70;75.40;;;;;;5025688;28;20036;-83
2021/10/25 05:30:24;;;;;;;4.60;2.63;;;9.70;74.80;;;;;;5022473;28;20025;-78
2021/10/25 05:32:50;;;;;;;6.18;2.63;;;9.70;73.50;;;;;;5030507;28;20034;-81
2021/10/25 05:35:16;;;;;;;8.77;3.75;;;9.70;72.80;;;;;;5037161;28;20018;-80
2021/10/25 05:37:41;;;;;;;6.25;2.90;;;9.80;74.20;;;;;;5032308;28;20091;-81
2021/10/25 05:40:08;;;;;;;8.45;3.20;;;9.80;73.40;;;;;;5019550;28;20109;-82
2021/10/25 05:42:34;;;;;;;6.38;3.00;;;9.90;73.80;;;;;;5026349;28;20045;-81
2021/10/25 05:45:01;;;;;;;5.35;2.72;;;9.90;74.20;;;;;;5023145;28;20464;-83
2021/10/25 05:47:27;;;;;;;7.07;3.00;;;9.90;74.40;;;;;;5023715;28;20649;-79
2021/10/25 05:49:52;;;;;;;7.50;3.13;;;9.80;73.20;;;;;;5025097;28;20049;-81
2021/10/25 05:52:18;;;;;;;6.90;3.10;;;9.80;74.90;;;;;;5024098;28;20022;-80
2021/10/25 05:54:44;;;;;;;5.75;3.15;;;9.80;75.60;;;;;;5024058;28;20022;-88
2021/10/25 05:57:12;;;;;;;5.45;3.08;;;9.80;74.70;;;;;;5031001;28;20033;-85
2021/10/25 05:59:38;;;;;;;7.15;3.28;;;9.80;76.00;;;;;;5028737;28;20468;-84
2021/10/25 06:02:12;;;;;;;5.75;3.10;;;9.90;74.50;;;;;;5031831;28;20456;-84
2021/10/25 06:04:38;;;;;;;8.70;3.30;;;9.90;74.90;;;;;;5025915;28;20376;-83
2021/10/25 06:07:03;;;;;;;7.15;3.10;;;10.00;76.00;;;;;;5013584;28;20049;-84
2021/10/25 06:09:33;;;;;;;3.40;2.47;;;10.00;74.80;;;;;;5017171;28;20026;-86
2021/10/25 06:12:00;;;;;;;6.38;3.47;;;10.00;74.70;;;;;;5023102;28;20063;-82
2021/10/25 06:14:30;;;;;;;4.80;3.33;;;10.10;74.30;;;;;;5021368;28;20049;-82
2021/10/25 06:17:00;;;;;;;8.73;3.80;;;10.20;75.20;;;;;;5038262;28;20487;-81
2021/10/25 06:19:25;;;;;;;8.23;3.40;;;10.20;75.20;;;;;;5024861;28;20049;-83
2021/10/25 06:21:52;;;;;;;15.95;3.10;;;10.20;76.10;;;;;;5039756;28;20476;-82
2021/10/25 06:24:18;;;;;;;6.78;2.97;;;10.30;75.70;;;;;;5023818;28;20026;-82
2021/10/25 06:26:44;;;;;;;4.72;2.88;;;10.30;75.50;;;;;;5019954;28;20034;-83
2021/10/25 06:29:10;;;;;;;5.07;2.72;;;10.40;74.70;;;;;;5019420;28;20480;-83
2021/10/25 06:31:35;;;;;;;10.63;2.78;;;10.40;74.70;;;;;;5015576;28;20379;-84
2021/10/25 06:34:08;;;;;;;5.13;2.80;;;10.50;74.90;;;;;;5033847;28;20017;-82
2021/10/25 06:36:35;;;;;;;7.47;3.22;;;10.50;74.80;;;;;;5025080;28;20203;-83
2021/10/25 06:39:13;;;;;;;7.40;2.72;;;10.50;74.00;;;;;;5013084;28;20496;-83
2021/10/25 06:41:39;;;;;;;6.22;3.22;;;10.60;74.80;;;;;;5036682;28;20481;-83
2021/10/25 06:44:06;;;;;;;7.53;2.95;;;10.60;74.60;;;;;;5015176;28;20064;-83
2021/10/25 06:46:32;;;;;;;11.00;3.20;;;10.60;74.90;;;;;;5021689;28;20018;-85
2021/10/25 06:48:57;;;;;;;6.20;3.15;;;10.70;74.70;;;;;;5029765;28;20029;-84
2021/10/25 06:51:23;;;;;;;6.63;2.63;;;10.80;73.80;;;;;;5023750;28;20030;-84
2021/10/25 06:53:49;;;;;;;7.25;2.60;;;10.90;73.90;;;;;;5027589;28;20085;-85
2021/10/25 06:56:15;;;;;;;11.20;3.38;;;10.90;73.50;;;;;;5018517;28;20030;-86
2021/10/25 06:58:41;;;;;;;4.53;2.65;;;11.00;72.20;;;;;;5030903;28;20045;-84
2021/10/25 07:01:06;;;;;;;7.72;2.78;;;11.00;72.20;;;;;;5029905;28;20026;-85
2021/10/25 07:03:32;;;;;;;6.85;3.15;;;11.10;71.60;;;;;;5031400;28;20029;-84
2021/10/25 07:06:02;;;;;;;8.98;2.92;;;11.10;71.30;;;;;;5016914;28;20026;-85
2021/10/25 07:08:31;;;;;;;6.38;2.65;;;11.10;72.60;;;;;;5018186;28;20045;-84
2021/10/25 07:10:57;;;;;;;7.30;3.13;;;11.20;71.30;;;;;;5033689;28;20176;-85
2021/10/25 07:13:24;;;;;;;3.72;2.42;;;11.20;71.00;;;;;;5028177;28;20061;-85
2021/10/25 07:16:06;;;;;;;5.78;2.72;;;11.40;71.40;;;;;;5020347;28;20049;-85
2021/10/25 07:18:43;;;;;;;9.53;2.60;;;11.50;70.70;;;;;;5012187;28;20034;-85
2021/10/25 08:09:53;;;;;;;8.90;3.05;;;12.90;66.00;;;;;;5026874;28;20386;-87
2021/10/25 08:12:23;;;;;;;7.15;2.50;;;13.00;66.30;;;;;;5035691;28;20036;-84
2021/10/25 08:14:54;;;;;;;9.90;2.80;;;13.00;65.00;;;;;;5016955;28;20021;-87
2021/10/25 08:17:22;;;;;;;8.02;2.90;;;13.10;66.30;;;;;;5028180;28;20119;-84
2021/10/25 08:19:49;;;;;;;5.68;2.70;;;13.10;64.20;;;;;;5021668;28;20018;-84
2021/10/25 08:22:17;;;;;;;7.03;2.78;;;13.10;64.40;;;;;;5021078;28;20018;-83
2021/10/25 08:24:48;;;;;;;4.55;2.55;;;13.10;64.60;;;;;;5020999;28;20028;-84
2021/10/25 08:27:16;;;;;;;7.85;2.65;;;13.10;64.50;;;;;;5032848;28;20124;-84
2021/10/25 08:29:45;;;;;;;8.38;2.58;;;13.20;63.80;;;;;;5030767;28;20484;-83
2021/10/25 08:40:00;;;;;;;5.45;2.53;;;13.50;62.40;;;;;;5021895;28;20026;-84
2021/10/25 08:42:28;;;;;;;7.93;2.47;;;13.60;62.70;;;;;;5020338;28;20018;-82
2021/10/25 08:44:58;;;;;;;9.30;2.70;;;13.70;62.40;;;;;;5017876;28;20061;-83
2021/10/25 08:47:29;;;;;;;11.98;2.67;;;13.70;62.20;;;;;;5032110;28;20041;-84
2021/10/25 08:49:56;;;;;;;4.78;2.20;;;13.90;60.90;;;;;;5017054;28;20363;-84
2021/10/25 08:52:24;;;;;;;2.67;2.20;;;14.00;60.80;;;;;;5011771;28;20026;-83
2021/10/25 08:54:51;;;;;;;4.90;2.38;;;14.00;60.40;;;;;;5015877;28;20042;-84
2021/10/25 08:57:19;;;;;;;2.72;2.10;;;14.10;61.80;;;;;;5013400;28;20030;-84
2021/10/25 09:00:13;;;;;;;5.03;2.53;;;14.30;59.60;;;;;;5024506;28;20018;-84
2021/10/25 09:02:41;;;;;;;4.50;2.60;;;14.40;60.40;;;;;;5028725;28;20112;-82
2021/10/25 09:05:16;;;;;;;6.25;2.55;;;14.50;61.10;;;;;;5016999;28;20163;-84
2021/10/25 09:07:58;;;;;;;4.85;2.40;;;14.60;59.30;;;;;;5028787;28;20144;-85
2021/10/25 09:10:32;;;;;;;6.65;2.47;;;14.60;58.50;;;;;;5026276;28;20068;-86
2021/10/25 09:13:07;;;;;;;7.55;2.70;;;14.60;59.80;;;;;;5016517;28;20024;-84
2021/10/25 09:15:37;;;;;;;5.93;2.70;;;14.60;59.70;;;;;;5024730;28;20055;-84
2021/10/25 09:18:13;;;;;;;7.72;2.83;;;14.80;58.90;;;;;;5030697;28;20143;-84
2021/10/25 09:20:51;;;;;;;4.72;2.38;;;14.90;59.60;;;;;;5020236;28;20516;-83
2021/10/25 09:23:22;;;;;;;7.13;2.70;;;14.90;57.70;;;;;;5011472;28;20022;-83
2021/10/25 09:25:58;;;;;;;3.67;2.23;;;15.00;59.10;;;;;;5013945;28;20691;-84
2021/10/25 09:28:28;;;;;;;3.58;2.47;;;15.00;59.60;;;;;;5013260;28;20029;-84
2021/10/25 09:30:57;;;;;;;6.32;3.03;;;15.10;59.10;;;;;;5032097;28;20444;-84
2021/10/25 09:33:24;;;;;;;6.43;2.50;;;15.10;58.40;;;;;;5017188;28;20018;-85
2021/10/25 09:36:01;;;;;;;3.88;2.35;;;15.20;57.80;;;;;;5044902;28;20056;-85
2021/10/25 09:38:38;;;;;;;5.43;3.05;;;15.20;58.10;;;;;;5032232;28;20476;-85
2021/10/25 09:49:29;;;;;;;5.03;2.90;;;15.70;58.60;;;;;;5015948;28;20061;-84
2021/10/25 09:51:59;;;;;;;5.97;3.00;;;15.80;58.00;;;;;;5026386;28;20051;-85
2021/10/25 09:54:28;;;;;;;7.70;2.60;;;16.00;57.90;;;;;;5023104;28;20030;-81
2021/10/25 09:57:07;;;;;;;4.55;2.38;;;16.10;57.20;;;;;;5026642;28;20530;-84
2021/10/25 09:59:47;;;;;;;4.85;2.22;;;16.20;57.50;;;;;;5019141;28;20029;-85
2021/10/25 10:02:14;;;;;;;6.20;2.72;;;16.30;57.20;;;;;;5019354;28;20030;-85
2021/10/25 10:04:42;;;;;;;7.38;2.45;;;16.40;57.70;;;;;;5034259;28;20035;-85
2021/10/25 10:07:26;;;;;;;3.63;2.30;;;16.50;57.40;;;;;;5014866;28;20180;-85
2021/10/25 10:09:52;;;;;;;4.95;2.50;;;16.60;56.90;;;;;;5014512;28;20041;-85
2021/10/25 10:12:20;;;;;;;4.43;2.53;;;16.70;57.20;;;;;;5023955;28;20030;-85
2021/10/25 10:14:51;;;;;;;4.13;2.20;;;16.70;56.30;;;;;;5020319;28;20034;-84
2021/10/25 10:17:21;;;;;;;3.22;2.22;;;16.80;56.70;;;;;;5012481;28;20373;-84
2021/10/25 10:19:50;;;;;;;4.07;2.05;;;16.80;56.30;;;;;;5016244;28;20656;-84
2021/10/25 10:22:18;;;;;;;3.65;2.30;;;17.00;55.90;;;;;;5027277;28;20010;-85
2021/10/25 10:24:50;;;;;;;7.50;2.25;;;17.20;56.00;;;;;;5013471;28;20052;-86
2021/10/25 10:27:23;;;;;;;4.90;2.55;;;17.30;55.20;;;;;;5012990;28;20025;-86
2021/10/25 10:29:59;;;;;;;5.22;2.42;;;17.40;55.50;;;;;;5021138;28;20119;-85
2021/10/25 10:32:31;;;;;;;6.18;2.80;;;17.50;54.20;;;;;;5017654;28;20391;-86
2021/10/25 10:35:11;;;;;;;5.25;2.92;;;17.70;54.70;;;;;;5020198;28;20141;-85
2021/10/25 10:37:41;;;;;;;3.85;2.50;;;17.70;55.00;;;;;;5031694;28;20103;-85
2021/10/25 10:40:16;;;;;;;4.60;2.50;;;17.80;55.30;;;;;;5027514;28;20036;-88
2021/10/25 10:42:50;;;;;;;4.35;2.38;;;17.90;54.70;;;;;;5014268;28;20204;-89
2021/10/25 10:45:17;;;;;;;6.13;2.30;;;18.10;53.50;;;;;;5019840;28;20107;-86
2021/10/25 10:47:58;;;;;;;9.45;2.75;;;18.20;54.80;;;;;;5012331;28;20718;-87
2021/10/25 10:53:33;;;;;;;4.82;2.78;;;18.30;53.30;;;;;;5013985;28;20511;-86
2021/10/25 10:56:03;;;;;;;3.00;2.47;;;18.40;54.00;;;;;;5015765;28;20495;-86
2021/10/25 11:01:08;;;;;;;8.18;2.88;;;18.60;52.40;;;;;;5032356;28;20027;-86
2021/10/25 11:03:35;;;;;;;4.78;2.55;;;18.70;52.40;;;;;;5028072;28;20026;-85
2021/10/25 11:06:10;;;;;;;4.20;2.28;;;18.70;51.60;;;;;;5024613;28;20108;-84
2021/10/25 11:08:42;;;;;;;5.32;2.63;;;18.80;51.80;;;;;;5018842;28;20017;-87
2021/10/25 11:11:10;;;;;;;7.68;2.78;;;19.00;51.80;;;;;;5014218;28;20084;-88
2021/10/25 11:13:47;;;;;;;5.70;2.65;;;19.10;51.50;;;;;;5011898;28;20661;-86
2021/10/25 11:16:33;;;;;;;6.50;2.63;;;19.20;50.60;;;;;;5028894;28;20048;-85
2021/10/25 11:19:01;;;;;;;6.15;2.40;;;19.40;52.60;;;;;;5013991;28;20400;-86
2021/10/25 11:21:34;;;;;;;3.67;2.20;;;19.60;49.60;;;;;;5021049;28;20468;-87
2021/10/25 11:24:03;;;;;;;7.63;2.72;;;19.90;48.60;;;;;;5012403;28;20030;-85
2021/10/25 11:26:47;;;;;;;7.05;2.72;;;19.90;49.60;;;;;;5029428;28;20052;-84
2021/10/25 11:29:13;;;;;;;3.50;2.33;;;20.10;48.80;;;;;;5029478;28;20045;-86
2021/10/25 11:31:42;;;;;;;4.25;2.67;;;20.20;48.30;;;;;;5011699;28;20068;-87
2021/10/25 11:34:10;;;;;;;4.68;2.35;;;20.30;47.90;;;;;;5018702;28;20034;-84
2021/10/25 11:36:47;;;;;;;7.60;2.67;;;20.30;50.20;;;;;;5018724;28;20072;-85
2021/10/25 11:39:13;;;;;;;11.27;2.05;;;20.30;47.80;;;;;;5021738;28;20030;-85
2021/10/25 11:41:47;;;;;;;4.25;2.67;;;20.40;47.90;;;;;;5025746;28;20028;-88
2021/10/25 11:44:14;;;;;;;9.55;2.58;;;20.40;47.90;;;;;;5031432;28;20024;-86
2021/10/25 11:46:40;;;;;;;3.65;2.53;;;20.30;48.20;;;;;;5018780;28;20030;-86
2021/10/25 11:49:07;;;;;;;6.65;2.47;;;20.10;47.90;;;;;;5019179;28;20497;-87
2021/10/25 11:51:33;;;;;;;4.25;2.42;;;20.10;49.40;;;;;;5031785;28;20049;-85
2021/10/25 11:54:02;;;;;;;4.78;2.72;;;20.00;47.60;;;;;;5025013;28;20041;-87
2021/10/25 11:56:29;;;;;;;4.63;2.33;;;20.00;48.10;;;;;;5029961;28;20017;-85
2021/10/25 11:58:57;;;;;;;4.40;2.58;;;20.20;47.80;;;;;;5035462;28;20033;-87
2021/10/25 12:01:25;;;;;;;5.28;2.63;;;20.50;47.60;;;;;;5026114;28;20032;-90
2021/10/25 12:03:50;;;;;;;4.00;2.25;;;21.00;47.10;;;;;;5031379;28;20014;-87
2021/10/25 12:06:22;;;;;;;10.38;2.78;;;22.10;45.50;;;;;;5025703;28;20518;-87
2021/10/25 12:09:14;;;;;;;5.65;2.95;;;23.90;43.80;;;;;;5027821;28;20017;-82
2021/10/25 12:12:05;;;;;;;15.80;2.80;;;25.60;43.10;;;;;;5021048;28;20108;-85
2021/10/25 12:14:32;;;;;;;10.48;2.70;;;26.60;40.30;;;;;;5032737;28;20415;-85
2021/10/25 12:16:58;;;;;;;5.77;2.37;;;27.20;39.70;;;;;;5034490;28;20030;-86
2021/10/25 12:19:25;;;;;;;7.05;2.65;;;27.50;39.20;;;;;;5035346;28;20025;-87
2021/10/25 12:21:51;;;;;;;4.22;2.65;;;27.40;38.60;;;;;;5028531;28;20018;-86
2021/10/25 12:24:19;;;;;;;6.40;2.80;;;27.20;39.00;;;;;;5037893;28;20022;-85
2021/10/25 12:27:01;;;;;;;6.13;2.58;;;27.00;38.40;;;;;;5033982;28;20018;-87
2021/10/25 12:29:27;;;;;;;4.30;2.67;;;26.20;38.90;;;;;;5029679;28;20100;-86
2021/10/25 12:31:53;;;;;;;4.22;2.38;;;25.40;40.50;;;;;;5034328;28;20017;-87
2021/10/25 12:34:18;;;;;;;6.13;2.97;;;25.10;41.10;;;;;;5029275;28;20013;-86
2021/10/25 12:36:45;;;;;;;15.57;2.67;;;24.90;40.70;;;;;;5026352;28;20030;-84
2021/10/25 12:39:18;;;;;;;10.13;2.85;;;24.40;41.00;;;;;;5016862;28;20025;-86
2021/10/25 12:41:45;;;;;;;3.63;2.83;;;24.10;42.00;;;;;;5015755;28;20033;-86
2021/10/25 12:44:20;;;;;;;8.35;2.70;;;23.90;42.40;;;;;;5024726;28;20026;-86
2021/10/25 12:46:46;;;;;;;4.70;2.40;;;23.90;42.50;;;;;;5017476;28;20022;-82
2021/10/25 12:49:19;;;;;;;5.88;3.00;;;23.70;42.40;;;;;;5023994;28;20079;-85
2021/10/25 12:51:45;;;;;;;4.22;2.50;;;24.00;42.30;;;;;;5032048;28;20030;-85
2021/10/25 12:54:13;;;;;;;6.10;2.45;;;24.40;42.60;;;;;;5026831;28;20025;-83
2021/10/25 12:56:41;;;;;;;6.97;2.83;;;25.30;42.30;;;;;;5038257;28;20028;-94
2021/10/25 12:59:10;;;;;;;3.25;2.40;;;26.20;40.10;;;;;;5025653;28;20057;-89
2021/10/25 13:01:36;;;;;;;6.22;3.20;;;27.20;38.70;;;;;;5047594;28;20021;-88
2021/10/25 13:04:04;;;;;;;10.55;3.80;;;28.20;37.70;;;;;;5034657;28;20108;-85
2021/10/25 13:06:31;;;;;;;4.72;2.63;;;28.40;38.20;;;;;;5019513;28;20108;-88
2021/10/25 13:09:02;;;;;;;6.13;2.80;;;29.40;37.60;;;;;;5029172;28;20021;-89
2021/10/25 13:11:28;;;;;;;4.97;2.47;;;29.90;36.20;;;;;;5034377;28;20037;-87
2021/10/25 13:13:57;;;;;;;6.40;2.92;;;29.80;36.10;;;;;;5033113;28;20527;-88
2021/10/25 13:16:26;;;;;;;4.30;2.63;;;29.20;36.30;;;;;;5038192;28;20092;-87
2021/10/25 13:18:51;;;;;;;4.53;3.13;;;28.70;36.90;;;;;;5023645;28;20278;-85
2021/10/25 13:21:17;;;;;;;2.55;2.20;;;29.00;36.80;;;;;;5020561;28;20017;-82
2021/10/25 13:23:43;;;;;;;4.43;2.20;;;29.20;36.70;;;;;;5031912;28;20404;-88
2021/10/25 13:26:10;;;;;;;5.35;2.72;;;29.70;37.20;;;;;;5029985;28;20119;-87
2021/10/25 13:28:35;;;;;;;4.53;2.90;;;30.20;35.90;;;;;;5020507;28;20556;-90
2021/10/25 13:31:01;;;;;;;6.32;3.00;;;29.70;36.50;;;;;;5026163;28;20116;-87
2021/10/25 13:33:33;;;;;;;4.38;2.70;;;29.20;36.20;;;;;;5027396;28;20030;-86
2021/10/25 13:35:59;;;;;;;;;;;29.10;36.80;;;;;;5024934;28;20029;-86
2021/10/25 13:38:25;;;;;;;5.15;2.72;;;28.80;36.40;;;;;;5027606;28;19928;-84
2021/10/25 13:40:51;;;;;;;5.07;2.35;;;29.00;36.10;;;;;;5023179;28;20257;-84
2021/10/25 13:43:17;;;;;;;3.67;2.55;;;28.30;36.90;;;;;;5014721;28;20026;-85
2021/10/25 13:45:44;;;;;;;8.45;3.25;;;27.30;38.10;;;;;;5028667;28;20080;-87
2021/10/25 13:48:09;;;;;;;4.45;2.42;;;26.50;38.60;;;;;;5033243;28;20018;-82
2021/10/25 13:50:35;;;;;;;4.13;2.80;;;25.80;40.00;;;;;;5040565;28;20084;-89
2021/10/25 13:53:01;;;;;;;6.78;2.90;;;25.20;40.50;;;;;;5016988;28;20022;-90
2021/10/25 13:55:27;;;;;;;11.35;3.50;;;24.50;41.20;;;;;;5027730;28;20120;-90
2021/10/25 13:57:52;;;;;;;4.65;3.00;;;23.80;42.40;;;;;;5019603;28;20034;-83
2021/10/25 14:00:18;;;;;;;3.75;2.60;;;23.30;42.90;;;;;;5030504;28;20037;-83
2021/10/25 14:02:45;;;;;;;6.15;3.00;;;23.10;43.50;;;;;;5024727;28;20033;-84
2021/10/25 14:05:13;;;;;;;6.40;2.97;;;23.00;43.50;;;;;;5028093;28;20026;-88
2021/10/25 14:07:39;;;;;;;4.65;2.70;;;22.90;44.40;;;;;;5013219;28;20041;-85
2021/10/25 14:10:35;;;;;;;3.75;2.83;;;22.50;44.40;;;;;;5021927;28;20026;-90
2021/10/25 14:13:09;;;;;;;4.20;2.78;;;22.30;45.10;;;;;;5034097;28;20026;-93
2021/10/25 14:15:44;;;;;;;4.65;2.65;;;21.80;47.00;;;;;;5026653;28;20030;-84
2021/10/25 14:18:11;;;;;;;8.63;2.80;;;21.30;48.00;;;;;;5020081;28;20037;-85
2021/10/25 14:20:37;;;;;;;5.45;2.80;;;20.80;46.80;;;;;;5024950;28;20025;-82
2021/10/25 14:23:04;;;;;;;8.48;2.72;;;20.50;47.70;;;;;;5019652;28;20029;-84
2021/10/25 14:25:30;;;;;;;3.10;2.38;;;20.30;48.00;;;;;;5026615;28;20018;-84
2021/10/25 14:27:57;;;;;;;4.97;3.00;;;20.20;48.80;;;;;;5034267;28;20488;-84
2021/10/25 14:30:23;;;;;;;3.80;2.60;;;20.00;48.50;;;;;;5019806;28;20556;-83
2021/10/25 14:32:52;;;;;;;12.82;2.90;;;19.90;49.20;;;;;;5013633;28;20025;-83
2021/10/25 14:35:19;;;;;;;9.68;3.00;;;19.70;49.70;;;;;;5031287;28;20017;-86
2021/10/25 14:37:45;;;;;;;4.82;2.63;;;19.40;50.20;;;;;;5034221;28;20029;-84
2021/10/25 14:40:12;;;;;;;6.20;2.92;;;19.30;50.60;;;;;;5029867;28;20616;-87